createdAt,value
2022-07-28T00:00:48.301Z,100.00
2022-07-28T00:03:14.865Z,100.00
2022-07-28T00:05:41.615Z,100.00
2022-07-28T00:08:10.247Z,100.00
2022-07-28T00:10:36.820Z,100.00
2022-07-28T00:13:06.693Z,100.00
2022-07-28T00:15:33.422Z,100.00
2022-07-28T00:18:00.628Z,100.00
2022-07-28T00:20:27.975Z,100.00
2022-07-28T00:22:54.694Z,100.00
2022-07-28T00:25:21.177Z,100.00
2022-07-28T00:27:48.315Z,100.00
2022-07-28T00:30:14.872Z,100.00
2022-07-28T00:32:41.587Z,100.00
2022-07-28T00:35:08.762Z,100.00
2022-07-28T00:37:35.497Z,100.00
2022-07-28T00:40:07.459Z,100.00
2022-07-28T00:42:33.946Z,100.00
2022-07-28T00:45:00.499Z,100.00
2022-07-28T00:47:26.969Z,100.00
2022-07-28T00:50:01.573Z,100.00
2022-07-28T00:52:28.410Z,100.00
2022-07-28T00:54:54.937Z,100.00
2022-07-28T00:57:21.925Z,100.00
2022-07-28T00:59:48.399Z,100.00
2022-07-28T01:02:15.564Z,100.00
2022-07-28T01:04:42.265Z,100.00
2022-07-28T01:07:19.601Z,100.00
2022-07-28T01:10:16.678Z,100.00
2022-07-28T01:13:02.597Z,100.00
2022-07-28T01:15:48.476Z,100.00
2022-07-28T01:18:21.391Z,100.00
2022-07-28T01:20:53.613Z,100.00
2022-07-28T01:23:32.150Z,100.00
2022-07-28T01:26:04.760Z,100.00
2022-07-28T01:28:59.700Z,100.00
2022-07-28T01:31:29.815Z,100.00
2022-07-28T01:34:05.812Z,100.00
2022-07-28T01:36:38.737Z,100.00
2022-07-28T01:39:05.476Z,100.00
2022-07-28T01:41:34.853Z,100.00
2022-07-28T01:44:06.469Z,100.00
2022-07-28T01:46:34.124Z,100.00
2022-07-28T01:49:02.309Z,100.00
2022-07-28T01:51:33.411Z,100.00
2022-07-28T01:54:01.858Z,100.00
2022-07-28T01:56:30.708Z,100.00
2022-07-28T01:59:00.452Z,100.00
2022-07-28T02:01:27.892Z,100.00
2022-07-28T02:03:56.538Z,100.00
2022-07-28T02:06:23.787Z,100.00
2022-07-28T02:08:52.439Z,100.00
2022-07-28T02:11:54.486Z,100.00
2022-07-28T02:14:25.657Z,100.00
2022-07-28T02:16:56.454Z,100.00
2022-07-28T02:19:26.099Z,100.00
2022-07-28T02:21:54.891Z,100.00
2022-07-28T02:24:26.527Z,100.00
2022-07-28T02:27:00.907Z,100.00
2022-07-28T02:32:27.858Z,100.00
2022-07-28T02:35:01.521Z,100.00
2022-07-28T02:37:34.983Z,100.00
2022-07-28T02:40:03.854Z,100.00
2022-07-28T02:42:34.026Z,100.00
2022-07-28T02:45:03.483Z,100.00
2022-07-28T02:47:34.049Z,100.00
2022-07-28T02:50:03.002Z,100.00
2022-07-28T02:52:30.737Z,100.00
2022-07-28T02:54:58.712Z,100.00
2022-07-28T02:57:26.874Z,100.00
2022-07-28T02:59:54.213Z,100.00
2022-07-28T03:02:22.074Z,100.00
2022-07-28T03:04:59.708Z,100.00
2022-07-28T03:07:31.712Z,100.00
2022-07-28T03:09:59.605Z,100.00
2022-07-28T03:12:26.908Z,100.00
2022-07-28T03:14:53.685Z,100.00
2022-07-28T03:17:20.307Z,100.00
2022-07-28T03:19:47.005Z,100.00
2022-07-28T03:22:13.831Z,100.00
2022-07-28T03:24:44.420Z,100.00
2022-07-28T03:27:31.406Z,100.00
2022-07-28T03:30:20.866Z,100.00
2022-07-28T03:32:54.670Z,100.00
2022-07-28T03:35:21.605Z,100.00
2022-07-28T03:37:58.310Z,100.00
2022-07-28T03:40:28.833Z,100.00
2022-07-28T03:42:57.342Z,100.00
2022-07-28T03:45:24.341Z,100.00
2022-07-28T03:47:56.441Z,100.00
2022-07-28T03:50:24.651Z,100.00
2022-07-28T03:52:51.843Z,100.00
2022-07-28T03:55:19.125Z,100.00
2022-07-28T03:57:45.888Z,100.00
2022-07-28T04:00:13.022Z,100.00
2022-07-28T04:02:43.732Z,100.00
2022-07-28T04:05:11.458Z,100.00
2022-07-28T04:07:37.950Z,100.00
2022-07-28T04:10:06.250Z,100.00
2022-07-28T04:12:51.398Z,100.00
2022-07-28T04:15:18.860Z,100.00
2022-07-28T04:17:45.893Z,100.00
2022-07-28T04:20:12.612Z,100.00
2022-07-28T04:22:39.130Z,100.00
2022-07-28T04:25:06.888Z,100.00
2022-07-28T04:27:35.836Z,100.00
2022-07-28T04:30:07.350Z,100.00
2022-07-28T04:32:33.948Z,100.00
2022-07-28T04:35:00.529Z,100.00
2022-07-28T04:37:27.440Z,100.00
2022-07-28T04:39:59.217Z,100.00
2022-07-28T04:42:26.044Z,100.00
2022-07-28T04:44:52.818Z,100.00
2022-07-28T04:47:19.280Z,100.00
2022-07-28T04:49:45.826Z,100.00
2022-07-28T04:52:12.531Z,100.00
2022-07-28T04:54:39.355Z,100.00
2022-07-28T04:57:11.413Z,100.00
2022-07-28T04:59:39.514Z,100.00
2022-07-28T05:02:06.992Z,100.00
2022-07-28T05:04:33.540Z,100.00
2022-07-28T05:07:01.776Z,100.00
2022-07-28T05:09:34.563Z,100.00
2022-07-28T05:12:01.069Z,100.00
2022-07-28T05:14:27.593Z,100.00
2022-07-28T05:16:54.121Z,100.00
2022-07-28T05:19:20.598Z,100.00
2022-07-28T05:21:47.128Z,100.00
2022-07-28T05:24:14.420Z,100.00
2022-07-28T05:26:41.419Z,100.00
2022-07-28T05:29:08.165Z,100.00
2022-07-28T05:31:34.752Z,100.00
2022-07-28T05:34:01.578Z,100.00
2022-07-28T05:36:28.047Z,100.00
2022-07-28T05:38:54.501Z,100.00
2022-07-28T05:41:20.959Z,100.00
2022-07-28T05:43:47.420Z,100.00
2022-07-28T05:46:13.907Z,100.00
2022-07-28T05:48:40.457Z,100.00
2022-07-28T05:51:06.989Z,100.00
2022-07-28T05:53:33.473Z,100.00
2022-07-28T05:56:01.702Z,100.00
2022-07-28T05:58:29.896Z,100.00
2022-07-28T06:00:59.939Z,100.00
2022-07-28T06:03:26.588Z,100.00
2022-07-28T06:05:59.257Z,100.00
2022-07-28T06:08:41.942Z,100.00
2022-07-28T06:11:11.796Z,100.00
2022-07-28T06:13:39.502Z,100.00
2022-07-28T06:16:11.195Z,100.00
2022-07-28T06:18:39.802Z,100.00
2022-07-28T06:21:06.275Z,100.00
2022-07-28T06:23:32.772Z,100.00
2022-07-28T06:25:59.272Z,100.00
2022-07-28T06:28:25.879Z,100.00
2022-07-28T06:30:52.383Z,100.00
2022-07-28T06:33:19.012Z,100.00
2022-07-28T06:35:51.109Z,100.00
2022-07-28T06:38:19.510Z,100.00
2022-07-28T06:40:46.344Z,100.00
2022-07-28T06:43:14.406Z,100.00
2022-07-28T06:45:40.977Z,100.00
2022-07-28T06:48:08.651Z,100.00
2022-07-28T06:50:35.991Z,100.00
2022-07-28T06:53:02.524Z,100.00
2022-07-28T06:55:35.331Z,100.00
2022-07-28T06:58:02.638Z,98.38
2022-07-28T07:00:29.295Z,99.20
2022-07-28T07:02:55.797Z,98.73
2022-07-28T07:05:22.306Z,98.06
2022-07-28T07:07:48.954Z,98.27
2022-07-28T07:10:15.710Z,96.32
2022-07-28T07:12:42.165Z,96.25
2022-07-28T07:15:09.376Z,95.84
2022-07-28T07:17:37.528Z,96.40
2022-07-28T07:20:06.631Z,95.70
2022-07-28T07:22:33.149Z,94.30
2022-07-28T07:25:08.897Z,94.22
2022-07-28T07:27:35.429Z,93.89
2022-07-28T07:30:02.135Z,93.96
2022-07-28T07:32:28.617Z,92.53
2022-07-28T07:34:55.090Z,91.36
2022-07-28T07:37:22.036Z,91.63
2022-07-28T07:39:48.497Z,91.96
2022-07-28T07:42:14.973Z,91.44
2022-07-28T07:44:41.530Z,89.74
2022-07-28T07:47:16.601Z,88.26
2022-07-28T07:49:45.154Z,86.41
2022-07-28T07:52:13.239Z,85.65
2022-07-28T07:54:39.749Z,84.98
2022-07-28T07:57:06.241Z,86.36
2022-07-28T07:59:32.722Z,84.60
2022-07-28T08:01:59.257Z,84.89
2022-07-28T08:04:25.876Z,84.39
2022-07-28T08:06:56.428Z,84.50
2022-07-28T08:09:23.002Z,85.30
2022-07-28T08:11:49.578Z,85.16
2022-07-28T08:14:17.613Z,84.46
2022-07-28T08:16:44.676Z,83.40
2022-07-28T08:19:11.746Z,82.09
2022-07-28T08:21:38.730Z,81.71
2022-07-28T08:24:05.545Z,82.66
2022-07-28T08:26:32.007Z,81.71
2022-07-28T08:28:58.546Z,81.79
2022-07-28T08:31:25.103Z,81.17
2022-07-28T08:33:53.301Z,81.27
2022-07-28T08:36:21.293Z,79.86
2022-07-28T08:38:47.766Z,79.63
2022-07-28T08:41:22.807Z,78.83
2022-07-28T08:43:53.806Z,78.46
2022-07-28T08:46:21.927Z,79.82
2022-07-28T08:48:50.808Z,80.91
2022-07-28T08:51:18.873Z,80.03
2022-07-28T08:53:46.510Z,79.01
2022-07-28T08:56:15.810Z,78.16
2022-07-28T08:58:42.693Z,76.32
2022-07-28T09:01:10.781Z,75.28
2022-07-28T09:03:39.212Z,74.86
2022-07-28T09:06:08.026Z,74.46
2022-07-28T09:08:34.693Z,74.48
2022-07-28T09:11:01.809Z,74.37
2022-07-28T09:13:28.419Z,73.17
2022-07-28T09:15:55.040Z,73.96
2022-07-28T09:18:21.654Z,72.99
2022-07-28T09:20:48.126Z,73.10
2022-07-28T09:23:42.516Z,74.61
2022-07-28T09:26:12.676Z,74.76
2022-07-28T09:28:57.131Z,71.89
2022-07-28T09:31:26.899Z,70.09
2022-07-28T09:33:58.639Z,70.77
2022-07-28T09:36:25.162Z,70.60
2022-07-28T09:38:52.021Z,70.50
2022-07-28T09:41:21.727Z,70.19
2022-07-28T09:43:54.861Z,70.06
2022-07-28T09:46:26.263Z,67.77
2022-07-28T09:48:59.535Z,67.13
2022-07-28T09:51:27.444Z,67.47
2022-07-28T09:54:06.872Z,68.58
2022-07-28T09:56:33.559Z,65.89
2022-07-28T09:59:00.591Z,67.20
2022-07-28T10:01:36.695Z,66.37
2022-07-28T10:04:04.085Z,67.98
2022-07-28T10:06:32.881Z,68.35
2022-07-28T10:09:04.378Z,68.26
2022-07-28T10:11:31.456Z,66.07
2022-07-28T10:14:00.555Z,64.30
2022-07-28T10:16:32.251Z,64.31
2022-07-28T10:19:01.458Z,64.42
2022-07-28T10:21:30.814Z,65.81
2022-07-28T10:24:02.630Z,65.58
2022-07-28T10:26:32.340Z,65.53
2022-07-28T10:29:06.956Z,65.10
2022-07-28T10:31:38.736Z,63.99
2022-07-28T10:34:10.082Z,64.40
2022-07-28T10:36:39.689Z,63.88
2022-07-28T10:39:13.491Z,62.04
2022-07-28T10:41:42.067Z,61.25
2022-07-28T10:44:14.284Z,62.25
2022-07-28T10:46:42.728Z,61.27
2022-07-28T10:49:10.831Z,62.76
2022-07-28T10:51:59.815Z,62.26
2022-07-28T10:54:29.643Z,62.06
2022-07-28T10:57:04.731Z,62.21
2022-07-28T11:00:12.368Z,63.51
2022-07-28T11:02:53.311Z,60.17
2022-07-28T11:05:36.626Z,62.88
2022-07-28T11:08:09.620Z,62.67
2022-07-28T11:10:51.104Z,61.86
2022-07-28T11:13:30.026Z,62.31
2022-07-28T11:16:14.463Z,59.87
2022-07-28T11:19:04.809Z,60.65
2022-07-28T11:21:41.150Z,61.90
2022-07-28T11:24:10.167Z,61.85
2022-07-28T11:26:44.745Z,59.95
2022-07-28T11:29:11.163Z,60.42
2022-07-28T11:31:43.860Z,58.62
2022-07-28T11:34:15.226Z,57.25
2022-07-28T11:37:05.996Z,57.12
2022-07-28T11:39:44.114Z,60.28
2022-07-28T11:42:30.859Z,61.31
2022-07-28T11:45:17.743Z,61.43
2022-07-28T11:47:44.274Z,62.67
2022-07-28T11:50:13.346Z,62.69
2022-07-28T11:52:51.807Z,63.83
2022-07-28T11:55:19.021Z,61.96
2022-07-28T11:57:49.548Z,61.79
2022-07-28T12:00:22.889Z,61.37
2022-07-28T12:02:50.710Z,61.18
2022-07-28T12:05:20.452Z,61.52
2022-07-28T12:07:51.772Z,62.04
2022-07-28T12:10:53.859Z,60.69
2022-07-28T12:13:27.996Z,60.98
2022-07-28T12:15:54.553Z,61.38
2022-07-28T12:18:21.624Z,60.18
2022-07-28T12:20:53.660Z,60.42
2022-07-28T12:23:34.947Z,59.08
2022-07-28T12:26:10.793Z,60.32
2022-07-28T12:28:37.388Z,60.08
2022-07-28T12:31:12.633Z,60.70
2022-07-28T12:33:39.241Z,60.56
2022-07-28T12:36:07.131Z,60.35
2022-07-28T12:38:34.137Z,57.41
2022-07-28T12:41:00.801Z,60.10
2022-07-28T12:43:32.114Z,58.79
2022-07-28T12:45:58.729Z,59.41
2022-07-28T12:48:25.468Z,59.95
2022-07-28T12:50:52.177Z,58.84
2022-07-28T12:53:21.814Z,57.85
2022-07-28T12:55:48.566Z,56.55
2022-07-28T12:58:23.788Z,58.06
2022-07-28T13:00:52.297Z,57.86
2022-07-28T13:03:27.974Z,58.90
2022-07-28T13:06:02.243Z,58.46
2022-07-28T13:08:44.733Z,58.25
2022-07-28T13:11:42.405Z,58.90
2022-07-28T13:14:02.130Z,56.84
2022-07-28T13:16:29.971Z,56.23
2022-07-28T13:18:59.395Z,57.38
2022-07-28T13:21:59.638Z,59.58
2022-07-28T13:24:29.635Z,58.49
2022-07-28T13:26:58.321Z,60.58
2022-07-28T13:29:24.913Z,60.14
2022-07-28T13:31:54.369Z,61.15
2022-07-28T13:34:21.263Z,60.60
2022-07-28T13:36:47.842Z,60.43
2022-07-28T13:39:14.403Z,61.73
2022-07-28T13:41:56.453Z,60.47
2022-07-28T13:44:29.169Z,60.70
2022-07-28T13:46:59.212Z,60.58
2022-07-28T13:49:27.437Z,60.31
2022-07-28T13:51:54.706Z,57.92
2022-07-28T13:54:21.244Z,57.85
2022-07-28T13:56:49.139Z,55.34
2022-07-28T13:59:15.733Z,55.49
2022-07-28T14:01:42.590Z,55.60
2022-07-28T14:04:14.649Z,55.57
2022-07-28T14:06:44.905Z,56.45
2022-07-28T14:09:12.059Z,56.92
2022-07-28T14:11:41.263Z,58.33
2022-07-28T14:14:17.101Z,58.78
2022-07-28T14:16:47.868Z,60.43
2022-07-28T14:19:16.479Z,60.97
2022-07-28T14:21:50.180Z,62.79
2022-07-28T14:24:17.501Z,62.59
2022-07-28T14:26:44.268Z,62.89
2022-07-28T14:29:11.593Z,64.08
2022-07-28T14:31:38.691Z,63.09
2022-07-28T14:34:05.254Z,64.05
2022-07-28T14:36:31.788Z,63.93
2022-07-28T14:38:58.278Z,63.34
2022-07-28T14:41:25.793Z,64.47
2022-07-28T14:43:53.014Z,63.67
2022-07-28T14:46:21.733Z,65.30
2022-07-28T14:48:49.244Z,65.08
2022-07-28T14:51:15.817Z,64.84
2022-07-28T14:53:50.068Z,65.07
2022-07-28T14:56:18.712Z,64.58
2022-07-28T14:58:45.233Z,64.76
2022-07-28T15:01:11.873Z,64.49
2022-07-28T15:03:38.400Z,64.53
2022-07-28T15:06:10.005Z,64.35
2022-07-28T15:08:36.591Z,65.02
2022-07-28T15:11:03.200Z,64.80
2022-07-28T15:13:29.736Z,66.05
2022-07-28T15:15:56.847Z,66.58
2022-07-28T15:18:24.494Z,66.70
2022-07-28T15:20:51.329Z,65.94
2022-07-28T15:23:18.008Z,65.83
2022-07-28T15:25:46.348Z,65.66
2022-07-28T15:28:17.633Z,66.50
2022-07-28T15:30:51.342Z,65.48
2022-07-28T15:33:20.451Z,66.55
2022-07-28T15:35:58.515Z,67.46
2022-07-28T15:38:27.672Z,67.30
2022-07-28T15:40:54.169Z,67.29
2022-07-28T15:43:23.813Z,67.42
2022-07-28T15:45:51.159Z,67.23
2022-07-28T15:48:17.647Z,66.10
2022-07-28T15:50:48.442Z,66.56
2022-07-28T15:53:16.336Z,67.21
2022-07-28T15:55:46.245Z,67.67
2022-07-28T15:58:15.561Z,67.25
2022-07-28T16:00:44.607Z,66.94
2022-07-28T16:03:11.572Z,66.68
2022-07-28T16:05:38.284Z,65.82
2022-07-28T16:08:05.048Z,65.77
2022-07-28T16:10:31.532Z,65.89
2022-07-28T16:12:57.980Z,66.34
2022-07-28T16:15:27.330Z,67.54
2022-07-28T16:17:54.558Z,68.27
2022-07-28T16:20:21.059Z,68.04
2022-07-28T16:22:48.061Z,67.88
2022-07-28T16:25:19.764Z,68.59
2022-07-28T16:27:47.569Z,69.32
2022-07-28T16:30:15.039Z,69.82
2022-07-28T16:32:41.606Z,70.84
2022-07-28T16:35:08.910Z,71.36
2022-07-28T16:37:36.229Z,70.96
2022-07-28T16:40:03.707Z,70.95
2022-07-28T16:42:30.470Z,71.68
2022-07-28T16:44:57.263Z,71.96
2022-07-28T16:47:23.720Z,71.95
2022-07-28T16:49:50.197Z,71.57
2022-07-28T16:52:16.713Z,71.93
2022-07-28T16:54:43.250Z,70.35
2022-07-28T16:57:09.825Z,69.60
2022-07-28T16:59:37.525Z,69.72
2022-07-28T17:02:14.524Z,69.42
2022-07-28T17:04:41.073Z,69.82
2022-07-28T17:07:08.257Z,69.34
2022-07-28T17:09:34.744Z,69.78
2022-07-28T17:12:01.274Z,69.79
2022-07-28T17:14:27.756Z,70.00
2022-07-28T17:16:54.283Z,70.29
2022-07-28T17:19:22.130Z,71.52
2022-07-28T17:21:49.034Z,72.29
2022-07-28T17:24:16.143Z,73.58
2022-07-28T17:27:35.196Z,73.80
2022-07-28T17:29:29.452Z,74.07
2022-07-28T17:31:56.133Z,74.50
2022-07-28T17:34:22.732Z,74.86
2022-07-28T17:36:50.387Z,75.34
2022-07-28T17:39:16.858Z,76.10
2022-07-28T17:41:43.423Z,76.23
2022-07-28T17:44:09.908Z,76.46
2022-07-28T17:46:37.933Z,76.01
2022-07-28T17:49:06.357Z,76.18
2022-07-28T17:51:32.897Z,75.79
2022-07-28T17:53:59.590Z,75.78
2022-07-28T17:56:26.625Z,76.16
2022-07-28T17:58:53.427Z,76.39
2022-07-28T18:01:20.008Z,77.07
2022-07-28T18:03:59.425Z,77.89
2022-07-28T18:06:33.914Z,78.55
2022-07-28T18:09:06.404Z,79.87
2022-07-28T18:11:56.619Z,80.91
2022-07-28T18:14:25.865Z,82.61
2022-07-28T18:16:52.438Z,82.86
2022-07-28T18:19:18.900Z,83.61
2022-07-28T18:21:45.352Z,84.58
2022-07-28T18:24:11.909Z,85.44
2022-07-28T18:26:38.490Z,85.89
2022-07-28T18:29:04.956Z,86.46
2022-07-28T18:31:31.923Z,87.96
2022-07-28T18:33:58.569Z,89.20
2022-07-28T18:36:25.005Z,90.19
2022-07-28T18:38:51.463Z,92.13
2022-07-28T18:41:17.957Z,93.35
2022-07-28T18:43:44.497Z,94.52
2022-07-28T18:46:11.006Z,94.78
2022-07-28T18:48:38.090Z,94.57
2022-07-28T18:51:04.706Z,95.20
2022-07-28T18:53:31.233Z,95.23
2022-07-28T18:55:58.200Z,93.83
2022-07-28T18:58:24.665Z,93.89
2022-07-28T19:00:51.171Z,93.38
2022-07-28T19:03:17.700Z,93.87
2022-07-28T19:05:46.357Z,93.46
2022-07-28T19:08:13.219Z,93.01
2022-07-28T19:10:39.795Z,93.23
2022-07-28T19:13:12.270Z,93.92
2022-07-28T19:15:40.597Z,94.84
2022-07-28T19:18:09.822Z,95.73
2022-07-28T19:20:44.016Z,95.86
2022-07-28T19:23:10.676Z,95.74
2022-07-28T19:25:38.951Z,95.42
2022-07-28T19:28:05.873Z,95.69
2022-07-28T19:30:32.566Z,96.51
2022-07-28T19:32:59.380Z,96.77
2022-07-28T19:35:26.200Z,97.43
2022-07-28T19:37:52.674Z,97.43
2022-07-28T19:40:19.253Z,96.98
2022-07-28T19:42:48.238Z,97.21
2022-07-28T19:45:14.721Z,97.65
2022-07-28T19:47:42.177Z,98.28
2022-07-28T19:50:09.155Z,98.45
2022-07-28T19:52:35.954Z,98.58
2022-07-28T19:55:05.294Z,97.96
2022-07-28T19:57:32.608Z,98.61
2022-07-28T19:59:59.254Z,99.63
2022-07-28T20:02:25.794Z,100.00
2022-07-28T20:04:52.350Z,100.00
2022-07-28T20:07:19.060Z,100.00
2022-07-28T20:09:45.517Z,100.00
2022-07-28T20:12:11.978Z,100.00
2022-07-28T20:14:38.498Z,100.00
2022-07-28T20:17:05.108Z,100.00
2022-07-28T20:19:31.753Z,100.00
2022-07-28T20:21:58.264Z,100.00
2022-07-28T20:24:24.855Z,100.00
2022-07-28T20:26:51.343Z,100.00
2022-07-28T20:29:18.073Z,100.00
2022-07-28T20:31:44.543Z,100.00
2022-07-28T20:34:12.962Z,100.00
2022-07-28T20:36:39.900Z,100.00
2022-07-28T20:39:21.444Z,100.00
2022-07-28T20:41:52.985Z,100.00
2022-07-28T20:44:28.672Z,100.00
2022-07-28T20:47:00.239Z,100.00
2022-07-28T20:49:28.371Z,100.00
2022-07-28T20:51:55.750Z,100.00
2022-07-28T20:54:22.355Z,100.00
2022-07-28T20:56:48.797Z,100.00
2022-07-28T20:59:15.303Z,100.00
2022-07-28T21:01:41.952Z,100.00
2022-07-28T21:04:11.280Z,100.00
2022-07-28T21:06:38.149Z,100.00
2022-07-28T21:09:05.141Z,100.00
2022-07-28T21:11:34.953Z,100.00
2022-07-28T21:14:01.997Z,100.00
2022-07-28T21:16:28.606Z,100.00
2022-07-28T21:18:55.246Z,100.00
2022-07-28T21:21:22.186Z,100.00
2022-07-28T21:23:49.926Z,100.00
2022-07-28T21:26:17.106Z,100.00
2022-07-28T21:29:02.466Z,100.00
2022-07-28T21:31:28.943Z,100.00
2022-07-28T21:33:55.616Z,100.00
2022-07-28T21:36:22.681Z,100.00
2022-07-28T21:38:49.231Z,100.00
2022-07-28T21:41:16.305Z,100.00
2022-07-28T21:43:42.790Z,100.00
2022-07-28T21:46:09.471Z,100.00
2022-07-28T21:48:36.036Z,100.00
2022-07-28T21:51:02.690Z,100.00
2022-07-28T21:53:29.161Z,100.00
2022-07-28T21:55:57.079Z,100.00
2022-07-28T21:58:23.604Z,100.00
2022-07-28T22:00:50.131Z,100.00
2022-07-28T22:03:16.618Z,100.00
2022-07-28T22:05:43.231Z,100.00
2022-07-28T22:08:09.797Z,100.00
2022-07-28T22:10:36.363Z,100.00
2022-07-28T22:13:02.832Z,100.00
2022-07-28T22:15:29.310Z,100.00
2022-07-28T22:17:55.793Z,100.00
2022-07-28T22:20:22.308Z,100.00
2022-07-28T22:22:48.766Z,100.00
2022-07-28T22:25:15.328Z,100.00
2022-07-28T22:27:41.825Z,100.00
2022-07-28T22:30:08.884Z,100.00
2022-07-28T22:32:35.369Z,100.00
2022-07-28T22:35:01.865Z,100.00
2022-07-28T22:37:28.451Z,100.00
2022-07-28T22:39:54.961Z,100.00
2022-07-28T22:42:21.465Z,100.00
2022-07-28T22:44:48.601Z,100.00
2022-07-28T22:47:15.223Z,100.00
2022-07-28T22:49:41.664Z,100.00
2022-07-28T22:52:08.166Z,100.00
2022-07-28T22:54:39.030Z,100.00
2022-07-28T22:57:06.246Z,100.00
2022-07-28T22:59:37.187Z,100.00
2022-07-28T23:02:06.593Z,100.00
2022-07-28T23:04:33.287Z,100.00
2022-07-28T23:06:59.735Z,100.00
2022-07-28T23:09:27.390Z,100.00
2022-07-28T23:11:55.642Z,100.00
2022-07-28T23:14:22.942Z,100.00
2022-07-28T23:16:49.472Z,100.00
2022-07-28T23:19:16.378Z,100.00
2022-07-28T23:21:42.980Z,100.00
2022-07-28T23:24:09.472Z,100.00
2022-07-28T23:26:36.010Z,100.00
2022-07-28T23:29:02.544Z,100.00
2022-07-28T23:31:29.209Z,100.00
2022-07-28T23:33:57.623Z,100.00
2022-07-28T23:36:26.451Z,100.00
2022-07-28T23:38:54.040Z,100.00
2022-07-28T23:41:20.517Z,100.00
2022-07-28T23:43:46.977Z,100.00
2022-07-28T23:46:13.535Z,100.00
2022-07-28T23:48:40.152Z,100.00
2022-07-28T23:51:06.718Z,100.00
2022-07-28T23:53:36.971Z,100.00
2022-07-28T23:56:03.578Z,100.00
2022-07-28T23:58:30.068Z,100.00
